LOG708 EGPH-EGSS
Flight info
| Callsign | LOG708 |
|---|---|
| Flight time | 1h 4m |
| Altitude | FL210 |
| Route | TLA6D TLA N864 DCS L612 LISTO LIST1L |
| Aircraft | DH8D/M-SDE2E3FGRY/N |
Departure
| Time | 2026-04-23 17:19 |
|---|---|
| Airport | Edinburgh Airport (EGPH) |
Arrival
| Time | 2026-04-23 18:24 |
|---|---|
| Airport | London Stansted Airport (EGSS) |
| Time | Latitude | Longitude | Altitude | Speed | Heading |
|---|---|---|---|---|---|
| 2026-04-23 17:04 | 55.94617 | -3.36628 | 143 ft | 0 kts | 88° |
| 2026-04-23 17:12 | 55.94616 | -3.36659 | 143 ft | 3 kts | 89° |
| 2026-04-23 17:13 | 55.94616 | -3.36702 | 143 ft | 3 kts | 89° |
| 2026-04-23 17:13 | 55.94607 | -3.36735 | 143 ft | 3 kts | 14° |
| 2026-04-23 17:13 | 55.94601 | -3.36737 | 143 ft | 0 kts | 3° |
| 2026-04-23 17:14 | 55.94649 | -3.36737 | 143 ft | 12 kts | 359° |
| 2026-04-23 17:15 | 55.94758 | -3.36742 | 143 ft | 19 kts | 359° |
| 2026-04-23 17:15 | 55.94890 | -3.36800 | 143 ft | 20 kts | 327° |
| 2026-04-23 17:15 | 55.94883 | -3.37008 | 143 ft | 20 kts | 239° |
| 2026-04-23 17:15 | 55.94813 | -3.37228 | 143 ft | 21 kts | 241° |
| 2026-04-23 17:16 | 55.94783 | -3.37321 | 143 ft | 1 kts | 239° |
| 2026-04-23 17:16 | 55.94774 | -3.37347 | 143 ft | 4 kts | 239° |
| 2026-04-23 17:16 | 55.94744 | -3.37439 | 143 ft | 10 kts | 239° |
| 2026-04-23 17:16 | 55.94707 | -3.37553 | 143 ft | 12 kts | 239° |
| 2026-04-23 17:17 | 55.94660 | -3.37693 | 143 ft | 17 kts | 239° |
| 2026-04-23 17:17 | 55.94592 | -3.37901 | 143 ft | 23 kts | 239° |
| 2026-04-23 17:17 | 55.94532 | -3.38076 | 143 ft | 26 kts | 238° |
| 2026-04-23 17:17 | 55.94394 | -3.38478 | 143 ft | 26 kts | 238° |
| 2026-04-23 17:18 | 55.94293 | -3.38846 | 143 ft | 10 kts | 291° |
| 2026-04-23 17:18 | 55.94330 | -3.38912 | 143 ft | 13 kts | 326° |
| 2026-04-23 17:18 | 55.94442 | -3.38904 | 143 ft | 10 kts | 57° |
| 2026-04-23 17:19 | 55.94456 | -3.38866 | 143 ft | 10 kts | 58° |
| 2026-04-23 17:19 | 55.94651 | -3.38291 | 143 ft | 98 kts | 59° |
| 2026-04-23 17:19 | 55.95119 | -3.36900 | 268 ft | 152 kts | 58° |
| 2026-04-23 17:19 | 55.95688 | -3.35217 | 853 ft | 166 kts | 58° |
| 2026-04-23 17:20 | 55.96293 | -3.33399 | 1589 ft | 175 kts | 59° |
| 2026-04-23 17:20 | 55.97923 | -3.29943 | 3049 ft | 194 kts | 38° |
| 2026-04-23 17:21 | 56.00224 | -3.26883 | 4325 ft | 220 kts | 37° |
| 2026-04-23 17:21 | 56.01044 | -3.25753 | 4747 ft | 228 kts | 38° |
| 2026-04-23 17:21 | 56.04040 | -3.21344 | 6216 ft | 252 kts | 40° |
| 2026-04-23 17:22 | 56.05185 | -3.18951 | 6828 ft | 258 kts | 62° |
| 2026-04-23 17:22 | 56.05392 | -3.12711 | 8074 ft | 263 kts | 111° |
| 2026-04-23 17:23 | 56.03207 | -3.07622 | 9324 ft | 264 kts | 138° |
| 2026-04-23 17:23 | 56.02296 | -3.06147 | 9677 ft | 267 kts | 139° |
| 2026-04-23 17:23 | 55.98945 | -3.01139 | 10842 ft | 275 kts | 142° |
| 2026-04-23 17:24 | 55.97416 | -2.99136 | 11320 ft | 275 kts | 152° |
| 2026-04-23 17:24 | 55.96257 | -2.98358 | 11647 ft | 274 kts | 167° |
| 2026-04-23 17:24 | 55.92130 | -3.00186 | 12821 ft | 270 kts | 213° |
| 2026-04-23 17:25 | 55.89052 | -3.03858 | 13814 ft | 270 kts | 209° |
| 2026-04-23 17:25 | 55.87426 | -3.05425 | 14308 ft | 269 kts | 207° |
| 2026-04-23 17:26 | 55.84015 | -3.08391 | 14968 ft | 280 kts | 204° |
| 2026-04-23 17:26 | 55.81060 | -3.10749 | 15465 ft | 287 kts | 203° |
| 2026-04-23 17:27 | 55.76756 | -3.14100 | 16167 ft | 293 kts | 204° |
| 2026-04-23 17:27 | 55.75518 | -3.15072 | 16366 ft | 295 kts | 203° |
| 2026-04-23 17:27 | 55.73046 | -3.17023 | 16763 ft | 297 kts | 204° |
| 2026-04-23 17:27 | 55.71165 | -3.18517 | 17063 ft | 298 kts | 204° |
| 2026-04-23 17:28 | 55.69279 | -3.20015 | 17363 ft | 299 kts | 204° |
| 2026-04-23 17:28 | 55.67390 | -3.21516 | 17663 ft | 299 kts | 204° |
| 2026-04-23 17:28 | 55.66127 | -3.22517 | 17863 ft | 300 kts | 204° |
| 2026-04-23 17:28 | 55.63606 | -3.24518 | 18261 ft | 300 kts | 203° |
| 2026-04-23 17:29 | 55.62340 | -3.25520 | 18461 ft | 300 kts | 203° |
| 2026-04-23 17:29 | 55.60442 | -3.27017 | 18760 ft | 301 kts | 203° |
| 2026-04-23 17:29 | 55.56026 | -3.30476 | 19455 ft | 301 kts | 203° |
| 2026-04-23 17:30 | 55.54756 | -3.31469 | 19654 ft | 300 kts | 203° |
| 2026-04-23 17:30 | 55.50980 | -3.34377 | 20247 ft | 299 kts | 200° |
| 2026-04-23 17:30 | 55.48300 | -3.35315 | 20644 ft | 298 kts | 183° |
| 2026-04-23 17:31 | 55.46925 | -3.35354 | 20844 ft | 298 kts | 179° |
| 2026-04-23 17:31 | 55.44870 | -3.35280 | 21141 ft | 297 kts | 178° |
| 2026-04-23 17:31 | 55.42804 | -3.35195 | 21322 ft | 301 kts | 179° |
| 2026-04-23 17:31 | 55.40032 | -3.35115 | 21409 ft | 311 kts | 179° |
| 2026-04-23 17:32 | 55.38603 | -3.35087 | 21429 ft | 315 kts | 179° |
| 2026-04-23 17:32 | 55.35656 | -3.35039 | 21443 ft | 325 kts | 179° |
| 2026-04-23 17:32 | 55.34150 | -3.35018 | 21445 ft | 329 kts | 180° |
| 2026-04-23 17:32 | 55.31856 | -3.34989 | 21446 ft | 334 kts | 180° |
| 2026-04-23 17:33 | 55.29525 | -3.34965 | 21449 ft | 338 kts | 180° |
| 2026-04-23 17:33 | 55.27173 | -3.34937 | 21450 ft | 342 kts | 179° |
| 2026-04-23 17:33 | 55.24797 | -3.34902 | 21449 ft | 345 kts | 179° |
| 2026-04-23 17:33 | 55.21629 | -3.34849 | 21448 ft | 348 kts | 179° |
| 2026-04-23 17:34 | 55.20016 | -3.34821 | 21447 ft | 350 kts | 179° |
| 2026-04-23 17:34 | 55.17602 | -3.34779 | 21446 ft | 352 kts | 179° |
| 2026-04-23 17:34 | 55.12746 | -3.34698 | 21444 ft | 354 kts | 179° |
| 2026-04-23 17:35 | 55.10288 | -3.34658 | 21442 ft | 355 kts | 179° |
| 2026-04-23 17:35 | 55.05370 | -3.34580 | 21441 ft | 357 kts | 179° |
| 2026-04-23 17:35 | 55.02067 | -3.34528 | 21439 ft | 357 kts | 179° |
| 2026-04-23 17:36 | 54.99592 | -3.34489 | 21435 ft | 358 kts | 179° |
| 2026-04-23 17:36 | 54.97949 | -3.34464 | 21433 ft | 358 kts | 179° |
| 2026-04-23 17:36 | 54.94656 | -3.34415 | 21432 ft | 359 kts | 179° |
| 2026-04-23 17:36 | 54.93003 | -3.34393 | 21431 ft | 359 kts | 179° |
| 2026-04-23 17:37 | 54.90530 | -3.34360 | 21430 ft | 359 kts | 179° |
| 2026-04-23 17:37 | 54.88054 | -3.34322 | 21430 ft | 359 kts | 179° |
| 2026-04-23 17:37 | 54.83138 | -3.34240 | 21428 ft | 359 kts | 179° |
| 2026-04-23 17:38 | 54.80650 | -3.34199 | 21428 ft | 359 kts | 179° |
| 2026-04-23 17:38 | 54.78159 | -3.34158 | 21427 ft | 359 kts | 179° |
| 2026-04-23 17:38 | 54.74843 | -3.34106 | 21426 ft | 359 kts | 179° |
| 2026-04-23 17:38 | 54.72383 | -3.33802 | 21423 ft | 359 kts | 171° |
| 2026-04-23 17:39 | 54.70773 | -3.33105 | 21425 ft | 359 kts | 162° |
| 2026-04-23 17:39 | 54.68465 | -3.31503 | 21425 ft | 359 kts | 156° |
| 2026-04-23 17:39 | 54.66208 | -3.29704 | 21424 ft | 359 kts | 155° |
| 2026-04-23 17:39 | 54.63191 | -3.27308 | 21421 ft | 359 kts | 155° |
| 2026-04-23 17:40 | 54.61698 | -3.26153 | 21421 ft | 359 kts | 156° |
| 2026-04-23 17:40 | 54.59423 | -3.24430 | 21420 ft | 359 kts | 156° |
| 2026-04-23 17:40 | 54.57141 | -3.22730 | 21419 ft | 359 kts | 156° |
| 2026-04-23 17:40 | 54.54851 | -3.21035 | 21419 ft | 359 kts | 156° |
| 2026-04-23 17:41 | 54.52565 | -3.19343 | 21418 ft | 359 kts | 156° |
| 2026-04-23 17:41 | 54.48040 | -3.15982 | 21417 ft | 359 kts | 156° |
| 2026-04-23 17:41 | 54.44992 | -3.13717 | 21416 ft | 359 kts | 156° |
| 2026-04-23 17:42 | 54.41196 | -3.10901 | 21415 ft | 359 kts | 156° |
| 2026-04-23 17:42 | 54.38930 | -3.09222 | 21414 ft | 359 kts | 156° |
| 2026-04-23 17:42 | 54.36645 | -3.07530 | 21414 ft | 359 kts | 156° |
| 2026-04-23 17:43 | 54.34360 | -3.05840 | 21413 ft | 360 kts | 156° |
| 2026-04-23 17:43 | 54.31393 | -3.03649 | 21413 ft | 360 kts | 156° |
| 2026-04-23 17:43 | 54.29869 | -3.02526 | 21415 ft | 360 kts | 156° |
| 2026-04-23 17:43 | 54.27587 | -3.00846 | 21415 ft | 360 kts | 156° |
| 2026-04-23 17:44 | 54.25318 | -2.99177 | 21411 ft | 360 kts | 156° |
| 2026-04-23 17:44 | 54.23026 | -2.97495 | 21409 ft | 360 kts | 156° |
| 2026-04-23 17:44 | 54.18471 | -2.94159 | 21406 ft | 361 kts | 156° |
| 2026-04-23 17:45 | 54.15421 | -2.91927 | 21405 ft | 361 kts | 156° |
| 2026-04-23 17:45 | 54.11827 | -2.89302 | 21405 ft | 361 kts | 156° |
| 2026-04-23 17:45 | 54.08763 | -2.87065 | 21404 ft | 361 kts | 156° |
| 2026-04-23 17:46 | 54.04179 | -2.83726 | 21404 ft | 361 kts | 156° |
| 2026-04-23 17:46 | 54.02642 | -2.82609 | 21405 ft | 361 kts | 156° |
| 2026-04-23 17:46 | 54.00401 | -2.80983 | 21405 ft | 361 kts | 156° |
| 2026-04-23 17:47 | 53.98093 | -2.79311 | 21405 ft | 361 kts | 156° |
| 2026-04-23 17:47 | 53.95793 | -2.77655 | 21405 ft | 361 kts | 156° |
| 2026-04-23 17:47 | 53.90451 | -2.73793 | 21404 ft | 362 kts | 156° |
| 2026-04-23 17:48 | 53.88911 | -2.72675 | 21404 ft | 362 kts | 156° |
| 2026-04-23 17:48 | 53.86605 | -2.71006 | 21404 ft | 362 kts | 156° |
| 2026-04-23 17:48 | 53.84311 | -2.69350 | 21404 ft | 362 kts | 156° |
| 2026-04-23 17:48 | 53.82002 | -2.67689 | 21405 ft | 362 kts | 156° |
| 2026-04-23 17:49 | 53.79696 | -2.66033 | 21405 ft | 362 kts | 156° |
| 2026-04-23 17:49 | 53.77391 | -2.64380 | 21405 ft | 362 kts | 156° |
| 2026-04-23 17:49 | 53.75087 | -2.62731 | 21405 ft | 362 kts | 156° |
| 2026-04-23 17:49 | 53.72007 | -2.60532 | 21407 ft | 362 kts | 156° |
| 2026-04-23 17:50 | 53.70470 | -2.59437 | 21409 ft | 363 kts | 156° |
| 2026-04-23 17:50 | 53.65852 | -2.56143 | 21409 ft | 363 kts | 156° |
| 2026-04-23 17:50 | 53.63534 | -2.54490 | 21410 ft | 363 kts | 156° |
| 2026-04-23 17:51 | 53.61230 | -2.52848 | 21411 ft | 363 kts | 156° |
| 2026-04-23 17:51 | 53.58923 | -2.51208 | 21412 ft | 363 kts | 156° |
| 2026-04-23 17:51 | 53.53522 | -2.47380 | 21415 ft | 363 kts | 156° |
| 2026-04-23 17:52 | 53.51978 | -2.46288 | 21416 ft | 363 kts | 156° |
| 2026-04-23 17:52 | 53.47382 | -2.43041 | 21418 ft | 363 kts | 156° |
| 2026-04-23 17:52 | 53.45073 | -2.41414 | 21420 ft | 363 kts | 156° |
| 2026-04-23 17:53 | 53.40489 | -2.38187 | 21423 ft | 364 kts | 156° |
| 2026-04-23 17:53 | 53.38157 | -2.36549 | 21424 ft | 364 kts | 156° |
| 2026-04-23 17:53 | 53.35833 | -2.34917 | 21426 ft | 364 kts | 156° |
| 2026-04-23 17:54 | 53.33506 | -2.33285 | 21426 ft | 364 kts | 156° |
| 2026-04-23 17:54 | 53.31179 | -2.31654 | 21427 ft | 364 kts | 156° |
| 2026-04-23 17:54 | 53.26575 | -2.28433 | 21427 ft | 364 kts | 156° |
| 2026-04-23 17:55 | 53.21971 | -2.25218 | 21426 ft | 364 kts | 156° |
| 2026-04-23 17:55 | 53.19662 | -2.23612 | 21422 ft | 364 kts | 156° |
| 2026-04-23 17:55 | 53.17360 | -2.22015 | 21420 ft | 364 kts | 156° |
| 2026-04-23 17:56 | 53.15053 | -2.20387 | 21416 ft | 364 kts | 155° |
| 2026-04-23 17:56 | 53.10862 | -2.15948 | 21412 ft | 363 kts | 141° |
| 2026-04-23 17:56 | 53.08871 | -2.13393 | 21409 ft | 363 kts | 141° |
| 2026-04-23 17:57 | 53.06890 | -2.10865 | 21407 ft | 363 kts | 142° |
| 2026-04-23 17:57 | 53.04897 | -2.08376 | 21404 ft | 363 kts | 142° |
| 2026-04-23 17:57 | 53.00171 | -2.02634 | 21400 ft | 363 kts | 143° |
| 2026-04-23 17:58 | 52.98813 | -2.01001 | 21399 ft | 363 kts | 143° |
| 2026-04-23 17:58 | 52.96775 | -1.98552 | 21397 ft | 363 kts | 143° |
| 2026-04-23 17:58 | 52.94735 | -1.96103 | 21396 ft | 364 kts | 142° |
| 2026-04-23 17:58 | 52.92707 | -1.93663 | 21395 ft | 365 kts | 142° |
| 2026-04-23 17:59 | 52.90661 | -1.91195 | 21395 ft | 365 kts | 142° |
| 2026-04-23 17:59 | 52.88618 | -1.88725 | 21394 ft | 365 kts | 142° |
| 2026-04-23 17:59 | 52.86588 | -1.86271 | 21394 ft | 366 kts | 142° |
| 2026-04-23 17:59 | 52.84539 | -1.83798 | 21393 ft | 366 kts | 142° |
| 2026-04-23 18:00 | 52.82493 | -1.81335 | 21394 ft | 366 kts | 142° |
| 2026-04-23 18:00 | 52.80459 | -1.78892 | 21395 ft | 366 kts | 142° |
| 2026-04-23 18:00 | 52.78399 | -1.76423 | 21406 ft | 366 kts | 142° |
| 2026-04-23 18:00 | 52.76343 | -1.73968 | 21412 ft | 366 kts | 142° |
| 2026-04-23 18:01 | 52.74279 | -1.71579 | 21413 ft | 367 kts | 145° |
| 2026-04-23 18:01 | 52.73265 | -1.70559 | 21413 ft | 370 kts | 148° |
| 2026-04-23 18:01 | 52.71152 | -1.68690 | 21420 ft | 371 kts | 151° |
| 2026-04-23 18:01 | 52.68110 | -1.66169 | 21415 ft | 371 kts | 152° |
| 2026-04-23 18:02 | 52.66581 | -1.64917 | 21414 ft | 371 kts | 152° |
| 2026-04-23 18:02 | 52.64299 | -1.63029 | 21413 ft | 371 kts | 152° |
| 2026-04-23 18:02 | 52.62009 | -1.61099 | 21411 ft | 371 kts | 151° |
| 2026-04-23 18:02 | 52.59727 | -1.59148 | 21410 ft | 371 kts | 151° |
| 2026-04-23 18:03 | 52.58061 | -1.57715 | 21408 ft | 372 kts | 150° |
| 2026-04-23 18:03 | 52.55998 | -1.55935 | 21411 ft | 372 kts | 150° |
| 2026-04-23 18:03 | 52.53717 | -1.53973 | 21408 ft | 372 kts | 151° |
| 2026-04-23 18:03 | 52.51469 | -1.52046 | 21406 ft | 372 kts | 151° |
| 2026-04-23 18:04 | 52.49229 | -1.50133 | 21405 ft | 372 kts | 151° |
| 2026-04-23 18:04 | 52.46944 | -1.48188 | 21405 ft | 372 kts | 151° |
| 2026-04-23 18:04 | 52.44654 | -1.46241 | 21404 ft | 372 kts | 151° |
| 2026-04-23 18:04 | 52.42365 | -1.44298 | 21403 ft | 372 kts | 151° |
| 2026-04-23 18:05 | 52.40078 | -1.42358 | 21403 ft | 372 kts | 151° |
| 2026-04-23 18:05 | 52.37828 | -1.40452 | 21402 ft | 372 kts | 151° |
| 2026-04-23 18:05 | 52.35538 | -1.38515 | 21401 ft | 372 kts | 151° |
| 2026-04-23 18:05 | 52.33252 | -1.36581 | 21400 ft | 372 kts | 151° |
| 2026-04-23 18:06 | 52.30969 | -1.34649 | 21399 ft | 372 kts | 151° |
| 2026-04-23 18:06 | 52.28691 | -1.32711 | 21397 ft | 371 kts | 150° |
| 2026-04-23 18:06 | 52.26443 | -1.30711 | 21255 ft | 368 kts | 149° |
| 2026-04-23 18:06 | 52.24238 | -1.28641 | 20817 ft | 365 kts | 148° |
| 2026-04-23 18:07 | 52.22075 | -1.26529 | 20366 ft | 362 kts | 147° |
| 2026-04-23 18:07 | 52.19939 | -1.24415 | 19903 ft | 360 kts | 147° |
| 2026-04-23 18:07 | 52.17802 | -1.22338 | 19433 ft | 358 kts | 148° |
| 2026-04-23 18:07 | 52.15681 | -1.20317 | 18963 ft | 356 kts | 148° |
| 2026-04-23 18:08 | 52.13549 | -1.18316 | 18489 ft | 354 kts | 149° |
| 2026-04-23 18:08 | 52.11430 | -1.16342 | 18017 ft | 352 kts | 149° |
| 2026-04-23 18:08 | 52.09331 | -1.14388 | 17548 ft | 350 kts | 149° |
| 2026-04-23 18:08 | 52.07234 | -1.12437 | 17079 ft | 347 kts | 149° |
| 2026-04-23 18:09 | 52.05158 | -1.10504 | 16615 ft | 345 kts | 149° |
| 2026-04-23 18:09 | 52.03119 | -1.08568 | 16316 ft | 338 kts | 147° |
| 2026-04-23 18:09 | 52.01506 | -1.06392 | 16079 ft | 331 kts | 130° |
| 2026-04-23 18:09 | 52.00354 | -1.03270 | 15719 ft | 326 kts | 110° |
| 2026-04-23 18:10 | 51.99825 | -0.99782 | 15234 ft | 326 kts | 97° |
| 2026-04-23 18:10 | 51.99665 | -0.96248 | 14753 ft | 326 kts | 91° |
| 2026-04-23 18:10 | 51.99620 | -0.93027 | 14307 ft | 321 kts | 90° |
| 2026-04-23 18:10 | 51.99611 | -0.89475 | 13810 ft | 314 kts | 90° |
| 2026-04-23 18:11 | 51.99625 | -0.85982 | 13310 ft | 307 kts | 89° |
| 2026-04-23 18:11 | 51.99645 | -0.82587 | 12815 ft | 301 kts | 90° |
| 2026-04-23 18:11 | 51.99660 | -0.79273 | 12320 ft | 295 kts | 90° |
| 2026-04-23 18:11 | 51.99669 | -0.76019 | 11825 ft | 289 kts | 90° |
| 2026-04-23 18:12 | 51.99670 | -0.72800 | 11324 ft | 285 kts | 90° |
| 2026-04-23 18:12 | 51.99666 | -0.69646 | 10831 ft | 282 kts | 91° |
| 2026-04-23 18:12 | 51.99658 | -0.66504 | 10334 ft | 280 kts | 91° |
| 2026-04-23 18:12 | 51.99648 | -0.63364 | 9834 ft | 278 kts | 91° |
| 2026-04-23 18:13 | 51.99639 | -0.60310 | 9344 ft | 276 kts | 91° |
| 2026-04-23 18:13 | 51.99629 | -0.57243 | 8849 ft | 274 kts | 91° |
| 2026-04-23 18:13 | 51.99614 | -0.54217 | 8355 ft | 272 kts | 93° |
| 2026-04-23 18:13 | 51.99005 | -0.50438 | 7699 ft | 257 kts | 114° |
| 2026-04-23 18:14 | 51.98499 | -0.48757 | 7371 ft | 254 kts | 116° |
| 2026-04-23 18:14 | 51.97713 | -0.46243 | 6878 ft | 254 kts | 117° |
| 2026-04-23 18:14 | 51.96841 | -0.43785 | 6377 ft | 250 kts | 123° |
| 2026-04-23 18:14 | 51.95839 | -0.41552 | 5879 ft | 243 kts | 126° |
| 2026-04-23 18:15 | 51.94833 | -0.39389 | 5378 ft | 238 kts | 126° |
| 2026-04-23 18:15 | 51.93876 | -0.37343 | 4894 ft | 233 kts | 126° |
| 2026-04-23 18:15 | 51.92902 | -0.35285 | 4395 ft | 229 kts | 126° |
| 2026-04-23 18:15 | 51.91954 | -0.33301 | 4098 ft | 216 kts | 126° |
| 2026-04-23 18:16 | 51.91085 | -0.31501 | 4016 ft | 194 kts | 127° |
| 2026-04-23 18:16 | 51.90300 | -0.29884 | 3991 ft | 173 kts | 126° |
| 2026-04-23 18:16 | 51.89603 | -0.28435 | 3983 ft | 154 kts | 125° |
| 2026-04-23 18:17 | 51.88058 | -0.25197 | 4057 ft | 217 kts | 126° |
| 2026-04-23 18:17 | 51.87136 | -0.23265 | 4012 ft | 218 kts | 126° |
| 2026-04-23 18:17 | 51.86225 | -0.21342 | 4002 ft | 217 kts | 125° |
| 2026-04-23 18:17 | 51.85325 | -0.19389 | 3973 ft | 218 kts | 124° |
| 2026-04-23 18:18 | 51.84440 | -0.17411 | 3552 ft | 221 kts | 124° |
| 2026-04-23 18:18 | 51.83563 | -0.15413 | 3165 ft | 219 kts | 123° |
| 2026-04-23 18:18 | 51.82707 | -0.13463 | 3072 ft | 212 kts | 122° |
| 2026-04-23 18:18 | 51.81948 | -0.11452 | 3014 ft | 207 kts | 117° |
| 2026-04-23 18:19 | 51.81291 | -0.09445 | 2976 ft | 197 kts | 116° |
| 2026-04-23 18:19 | 51.80677 | -0.07539 | 2983 ft | 190 kts | 115° |
| 2026-04-23 18:19 | 51.80082 | -0.05682 | 3009 ft | 188 kts | 115° |
| 2026-04-23 18:19 | 51.79480 | -0.03805 | 2994 ft | 191 kts | 115° |
| 2026-04-23 18:20 | 51.78875 | -0.01913 | 2989 ft | 193 kts | 115° |
| 2026-04-23 18:20 | 51.78261 | -0.00002 | 2994 ft | 195 kts | 115° |
| 2026-04-23 18:20 | 51.77658 | 0.01949 | 2999 ft | 199 kts | 110° |
| 2026-04-23 18:20 | 51.77367 | 0.04173 | 2747 ft | 215 kts | 88° |
| 2026-04-23 18:21 | 51.77782 | 0.06380 | 2410 ft | 207 kts | 61° |
| 2026-04-23 18:21 | 51.78630 | 0.08198 | 2085 ft | 198 kts | 50° |
| 2026-04-23 18:21 | 51.79545 | 0.09779 | 1769 ft | 194 kts | 48° |
| 2026-04-23 18:21 | 51.80439 | 0.11255 | 1436 ft | 176 kts | 47° |
| 2026-04-23 18:22 | 51.81265 | 0.12549 | 1346 ft | 169 kts | 42° |
| 2026-04-23 18:22 | 51.82239 | 0.13893 | 1638 ft | 201 kts | 42° |
| 2026-04-23 18:22 | 51.83335 | 0.15430 | 1436 ft | 227 kts | 41° |
| 2026-04-23 18:22 | 51.84442 | 0.17091 | 1095 ft | 206 kts | 46° |
| 2026-04-23 18:23 | 51.85373 | 0.18620 | 802 ft | 175 kts | 46° |
| 2026-04-23 18:23 | 51.86794 | 0.20875 | 541 ft | 133 kts | 46° |
| 2026-04-23 18:24 | 51.87968 | 0.22694 | 356 ft | 63 kts | 45° |
| 2026-04-23 18:24 | 51.88221 | 0.23075 | 356 ft | 39 kts | 44° |
| 2026-04-23 18:24 | 51.88303 | 0.23262 | 356 ft | 15 kts | 96° |
| 2026-04-23 18:25 | 51.88205 | 0.23545 | 356 ft | 14 kts | 131° |
| 2026-04-23 18:25 | 51.88180 | 0.23591 | 356 ft | 14 kts | 131° |
| 2026-04-23 18:25 | 51.88146 | 0.23731 | 356 ft | 16 kts | 64° |
| 2026-04-23 18:25 | 51.88233 | 0.23874 | 356 ft | 20 kts | 43° |
| 2026-04-23 18:26 | 51.88341 | 0.24038 | 356 ft | 23 kts | 43° |
| 2026-04-23 18:26 | 51.88464 | 0.24225 | 356 ft | 26 kts | 43° |
| 2026-04-23 18:26 | 51.88598 | 0.24422 | 356 ft | 24 kts | 43° |
| 2026-04-23 18:26 | 51.88724 | 0.24613 | 356 ft | 27 kts | 43° |
| 2026-04-23 18:27 | 51.88865 | 0.24825 | 356 ft | 29 kts | 43° |
| 2026-04-23 18:27 | 51.89007 | 0.25041 | 356 ft | 24 kts | 43° |
| 2026-04-23 18:27 | 51.89091 | 0.25167 | 356 ft | 14 kts | 42° |
| 2026-04-23 18:27 | 51.89141 | 0.25277 | 356 ft | 10 kts | 91° |
| 2026-04-23 18:28 | 51.89109 | 0.25363 | 356 ft | 7 kts | 132° |
| 2026-04-23 18:28 | 51.89117 | 0.25412 | 356 ft | 7 kts | 46° |
| 2026-04-23 18:28 | 51.89151 | 0.25465 | 356 ft | 9 kts | 44° |
| 2026-04-23 18:28 | 51.89156 | 0.25474 | 356 ft | 0 kts | 44° |